Terminal Aerodrome Forecast
Issued by NWS

Home | Current Version | Previous Version | Text Only | Print | Product List | Glossary Off
Versions: 1 2 3 4 5 6 7 8 9 10 11 12 13 14 15 16 17 18 19 20 21 22 23 24 25 26 27

000
FTUS43 KGRB 221900 AAB
TAFMTW
TAF AMD
KMTW 221925Z 2219/2318 12004KT 6SM BR SCT010 BKN035
      TEMPO 2219/2223 BKN008
     FM230300 VRB03KT 3SM BR BKN005
     FM230600 VRB03KT 1SM BR OVC003
      TEMPO 2309/2313 1/2SM FG OVC002
     FM231500 08006KT 3SM BR BKN003=

USA.gov is the U.S. government's official web portal to all federal, state and local government web resources and services.